Time;durP1;ratioP1;P1;durP2;ratioP2;P2;SDS_P1;SDS_P2;PMS_P1;PMS_P2;Temp;Humidity;BMP_temperature;BMP_pressure;BME280_temperature;BME280_humidity;BME280_pressure;Samples;Min_cycle;Max_cycle;Signal;HPM_P1;HPM_P2
2023/01/22 00:00:08;;;;;;;81.25;27.48;;;;;;;0.20;92.26;102625.66;5054758;28;20049;-50
2023/01/22 00:02:49;;;;;;;75.65;26.80;;;;;;;0.29;92.54;102648.91;5110965;27;20775;-53
2023/01/22 00:05:15;;;;;;;71.55;26.00;;;;;;;0.29;92.27;102632.34;5111333;28;20111;-52
2023/01/22 00:07:42;;;;;;;73.85;25.98;;;;;;;0.24;91.95;102632.50;5110458;28;20036;-51
2023/01/22 00:10:10;;;;;;;72.45;25.92;;;;;;;0.31;91.40;102621.00;5110989;28;20378;-51
2023/01/22 00:12:37;;;;;;;78.82;28.13;;;;;;;0.36;91.67;102636.50;5110901;28;20545;-50
2023/01/22 00:15:04;;;;;;;76.53;26.33;;;;;;;0.31;92.04;102641.88;5110964;28;20040;-50
2023/01/22 00:17:31;;;;;;;75.43;25.63;;;;;;;0.32;91.71;102621.84;5110708;28;20047;-53
2023/01/22 00:19:57;;;;;;;68.65;25.35;;;;;;;0.32;91.21;102625.31;5111227;28;20047;-51
2023/01/22 00:22:24;;;;;;;69.85;25.05;;;;;;;0.26;92.35;102620.25;5110626;28;20048;-53
2023/01/22 00:24:51;;;;;;;76.18;26.98;;;;;;;0.31;92.69;102609.66;5110949;28;20093;-53
2023/01/22 00:27:17;;;;;;;73.25;27.92;;;;;;;0.40;92.34;102617.28;5110807;28;20055;-50
2023/01/22 00:29:46;;;;;;;72.47;27.65;;;;;;;0.39;92.41;102610.34;5110601;28;20054;-51
2023/01/22 00:32:12;;;;;;;72.80;26.15;;;;;;;0.38;91.92;102600.78;5110544;28;20097;-49
2023/01/22 00:34:40;;;;;;;65.47;25.23;;;;;;;0.54;92.06;102593.38;5110432;28;20522;-49
2023/01/22 00:37:06;;;;;;;73.05;26.45;;;;;;;0.52;91.62;102595.16;5110764;28;20130;-50
2023/01/22 00:39:33;;;;;;;68.65;25.60;;;;;;;0.45;91.56;102594.47;5110305;28;20062;-50
2023/01/22 00:41:59;;;;;;;78.82;26.85;;;;;;;0.47;91.84;102584.00;5110713;28;20067;-51
2023/01/22 00:44:26;;;;;;;64.72;24.58;;;;;;;0.36;92.19;102574.72;5110348;28;20508;-50
2023/01/22 00:46:53;;;;;;;79.35;25.35;;;;;;;0.30;92.36;102574.03;5110168;28;20130;-49
2023/01/22 00:49:20;;;;;;;74.05;26.20;;;;;;;0.27;92.61;102567.13;5109312;28;20040;-49
2023/01/22 00:51:47;;;;;;;63.75;20.77;;;;;;;0.24;93.09;102575.06;5110457;28;20035;-49
2023/01/22 00:54:13;;;;;;;65.45;24.88;;;;;;;0.20;92.95;102576.06;5110201;28;20043;-51
2023/01/22 00:56:40;;;;;;;67.05;23.98;;;;;;;0.22;93.56;102584.69;5109918;28;20055;-51
2023/01/22 00:59:09;;;;;;;68.97;25.00;;;;;;;0.22;93.40;102573.38;5110193;28;20048;-50
2023/01/22 01:01:37;;;;;;;64.38;22.70;;;;;;;0.16;93.51;102567.44;5110108;28;20490;-51
2023/01/22 01:04:05;;;;;;;66.90;24.88;;;;;;;0.08;94.22;102569.41;5110476;28;20127;-48
2023/01/22 01:06:31;;;;;;;64.03;23.33;;;;;;;0.13;94.19;102569.28;5109601;28;20089;-50
2023/01/22 01:08:58;;;;;;;65.40;24.25;;;;;;;0.14;93.65;102569.22;5097820;28;20036;-49
2023/01/22 01:11:25;;;;;;;61.90;24.83;;;;;;;0.18;93.21;102577.81;5099556;28;20118;-49
2023/01/22 01:13:52;;;;;;;61.13;24.20;;;;;;;0.33;93.23;102579.19;5097966;28;20036;-50
2023/01/22 01:16:23;;;;;;;59.95;23.63;;;;;;;0.24;92.77;102576.78;5085117;28;20063;-48
2023/01/22 01:18:49;;;;;;;66.10;24.63;;;;;;;0.26;93.14;102573.25;5076030;28;20048;-50
2023/01/22 01:21:18;;;;;;;61.17;23.92;;;;;;;0.22;93.07;102570.75;5074439;28;20098;-50
2023/01/22 01:23:45;;;;;;;62.00;23.90;;;;;;;0.14;94.01;102561.38;5076208;28;20072;-49
2023/01/22 01:26:14;;;;;;;59.65;25.05;;;;;;;0.15;93.79;102573.56;5075716;28;20051;-50
2023/01/22 01:28:42;;;;;;;62.50;24.63;;;;;;;0.16;93.89;102584.84;5075764;28;20494;-50
2023/01/22 01:31:11;;;;;;;73.18;24.70;;;;;;;0.10;94.03;102571.97;5080137;28;20052;-51
2023/01/22 01:33:38;;;;;;;57.17;24.02;;;;;;;0.16;94.08;102577.00;5096294;28;20436;-50
2023/01/22 01:36:12;;;;;;;56.63;22.90;;;;;;;0.17;93.45;102573.53;5095980;28;20489;-50
2023/01/22 01:38:39;;;;;;;60.63;23.67;;;;;;;0.15;93.53;102570.09;5096009;28;20079;-51
2023/01/22 01:41:06;;;;;;;53.30;20.90;;;;;;;0.11;93.49;102563.22;5095977;28;20127;-50
2023/01/22 01:43:33;;;;;;;51.47;20.00;;;;;;;0.21;92.89;102575.13;5095663;28;20052;-49
2023/01/22 01:46:03;;;;;;;54.75;22.02;;;;;;;0.16;93.44;102566.56;5095698;28;20105;-50
2023/01/22 01:48:35;;;;;;;57.47;23.02;;;;;;;0.15;93.49;102572.72;5095651;28;20115;-48
2023/01/22 01:51:10;;;;;;;51.50;21.90;;;;;;;0.13;93.00;102564.91;5094781;28;20071;-51
2023/01/22 01:53:39;;;;;;;50.20;20.77;;;;;;;0.13;93.39;102551.88;5095618;28;20051;-51
2023/01/22 01:56:16;;;;;;;51.63;20.65;;;;;;;0.15;93.24;102559.66;5095575;28;20040;-50
2023/01/22 01:58:44;;;;;;;48.80;21.38;;;;;;;0.07;93.11;102551.16;5095649;28;20613;-49
2023/01/22 02:01:15;;;;;;;43.78;19.30;;;;;;;0.14;93.05;102547.50;5094786;28;20421;-50
2023/01/22 02:03:42;;;;;;;41.20;18.75;;;;;;;0.10;93.31;102551.94;5095550;28;20044;-51
2023/01/22 02:06:12;;;;;;;47.90;19.95;;;;;;;0.09;93.00;102544.16;5095114;28;20044;-51
2023/01/22 02:08:43;;;;;;;46.78;19.50;;;;;;;0.10;92.95;102549.34;5094374;28;20429;-50
2023/01/22 02:11:10;;;;;;;41.42;16.92;;;;;;;0.05;93.32;102547.75;5094105;28;20131;-51
2023/01/22 02:13:41;;;;;;;40.55;18.17;;;;;;;0.04;93.39;102559.94;5095199;28;20044;-51
2023/01/22 02:16:10;;;;;;;42.78;19.27;;;;;;;0.10;92.81;102551.09;5094979;28;20071;-49
2023/01/22 02:18:37;;;;;;;40.15;17.00;;;;;;;-0.01;93.26;102547.00;5095072;28;20052;-51
2023/01/22 02:24:11;;;;;;;40.78;18.00;;;;;;;0.04;93.45;102535.59;5110916;27;20892;-52
2023/01/22 02:26:40;;;;;;;44.22;18.48;;;;;;;0.04;92.76;102538.19;5111331;28;20524;-51
2023/01/22 02:29:09;;;;;;;40.67;17.77;;;;;;;0.07;93.05;102535.50;5110896;28;20419;-53
2023/01/22 02:31:37;;;;;;;35.42;15.30;;;;;;;0.05;92.59;102542.53;5111175;28;20104;-51
2023/01/22 02:34:05;;;;;;;40.40;17.67;;;;;;;-0.02;92.86;102534.00;5110829;28;20409;-53
2023/01/22 02:36:35;;;;;;;34.20;14.90;;;;;;;0.03;92.93;102541.72;5109845;28;20052;-51
2023/01/22 02:39:02;;;;;;;37.33;17.35;;;;;;;0.02;93.41;102538.25;5111004;28;20067;-52
2023/01/22 02:41:29;;;;;;;33.67;16.02;;;;;;;0.05;93.38;102540.75;5110839;28;20040;-51
2023/01/22 02:43:57;;;;;;;39.45;17.70;;;;;;;0.02;93.22;102542.59;5110738;28;20048;-53
2023/01/22 02:46:24;;;;;;;37.33;16.25;;;;;;;0.02;93.46;102529.56;5110818;28;20435;-52
2023/01/22 02:48:51;;;;;;;36.92;16.05;;;;;;;-0.02;93.81;102542.72;5110894;28;20047;-52
2023/01/22 02:51:18;;;;;;;34.20;15.20;;;;;;;-0.07;94.30;102538.50;5110787;28;20529;-52
2023/01/22 02:53:48;;;;;;;27.92;12.82;;;;;;;0.00;93.64;102537.44;5110620;28;20397;-52
2023/01/22 02:56:15;;;;;;;34.28;14.85;;;;;;;0.00;93.43;102537.44;5110362;28;20050;-52
2023/01/22 02:58:42;;;;;;;36.78;16.77;;;;;;;-0.02;93.56;102542.72;5110666;28;20074;-50
2023/01/22 03:03:46;;;;;;;36.53;17.15;;;;;;;0.02;93.46;102535.66;5131440;27;20902;-52
2023/01/22 03:06:20;;;;;;;36.38;17.75;;;;;;;0.02;93.38;102532.16;5111091;28;20041;-51
2023/01/22 03:08:48;;;;;;;36.72;15.23;;;;;;;0.06;92.69;102526.00;5110654;28;20043;-52
2023/01/22 03:11:15;;;;;;;35.42;17.33;;;;;;;0.04;92.98;102520.81;5100526;28;20040;-52
2023/01/22 03:22:11;;;;;;;32.80;16.23;;;;;;;-0.03;92.77;102512.28;5110531;28;20489;-52
2023/01/22 03:24:38;;;;;;;33.22;15.63;;;;;;;-0.03;93.32;102512.28;5110772;28;20066;-52
2023/01/22 03:27:04;;;;;;;36.30;16.98;;;;;;;-0.01;92.87;102514.84;5110684;28;20044;-52
2023/01/22 03:29:32;;;;;;;39.40;17.20;;;;;;;-0.03;92.18;102507.06;5110878;28;20050;-52
2023/01/22 03:32:00;;;;;;;23.63;12.32;;;;;;;-0.06;93.03;102501.91;5122326;28;20485;-52
2023/01/22 03:34:27;;;;;;;35.35;16.40;;;;;;;-0.06;93.09;102503.69;5131278;27;20101;-52
2023/01/22 03:36:55;;;;;;;35.30;16.30;;;;;;;-0.02;92.48;102503.56;5122821;28;20052;-50
2023/01/22 03:39:22;;;;;;;33.85;16.60;;;;;;;-0.03;92.37;102503.59;5110355;28;20397;-52
2023/01/22 03:41:49;;;;;;;28.13;13.50;;;;;;;-0.06;92.63;102490.63;5110399;28;20162;-50
2023/01/22 03:44:16;;;;;;;38.50;18.23;;;;;;;-0.08;93.25;102501.09;5110529;28;20064;-50
2023/01/22 03:46:43;;;;;;;34.15;17.33;;;;;;;-0.10;93.66;102508.13;5110390;28;20508;-50
2023/01/22 03:49:12;;;;;;;32.75;14.63;;;;;;;-0.07;93.58;102508.06;5110480;28;20093;-51
2023/01/22 03:51:40;;;;;;;31.45;14.40;;;;;;;-0.13;93.80;102497.75;5109403;28;20052;-51
2023/01/22 03:54:10;;;;;;;35.47;18.05;;;;;;;-0.14;93.67;102509.13;5110095;28;20044;-50
2023/01/22 03:56:37;;;;;;;38.53;16.90;;;;;;;-0.13;93.91;102508.19;5110086;28;20052;-51
2023/01/22 03:59:11;;;;;;;31.48;14.57;;;;;;;-0.08;93.94;102510.69;5109940;28;20052;-52
2023/01/22 04:01:38;;;;;;;36.03;17.60;;;;;;;-0.05;93.55;102508.00;5110081;28;20147;-51
2023/01/22 04:04:05;;;;;;;35.63;17.33;;;;;;;0.00;93.85;102513.97;5110259;28;20051;-50
2023/01/22 04:06:32;;;;;;;39.70;18.15;;;;;;;0.00;94.14;102508.75;5109690;28;20450;-50
2023/01/22 04:08:58;;;;;;;35.55;17.30;;;;;;;-0.01;93.59;102502.66;5109395;28;20544;-51
2023/01/22 04:11:30;;;;;;;;;;;;;;;-0.01;93.73;102515.69;5110464;28;20054;-50
2023/01/22 04:13:57;;;;;;;36.92;15.48;;;;;;;0.07;94.22;102514.63;5103169;28;19977;-49
2023/01/22 04:16:27;;;;;;;35.03;16.75;;;;;;;0.04;93.66;102512.97;5094414;28;20130;-51
2023/01/22 04:19:17;;;;;;;39.22;19.10;;;;;;;0.10;94.42;102515.41;5111118;27;20359;-49
2023/01/22 04:22:03;;;;;;;36.42;17.65;;;;;;;0.11;94.71;102509.28;5110786;28;20113;-53
2023/01/22 04:24:31;;;;;;;37.40;18.70;;;;;;;0.07;94.56;102515.47;5111200;28;20097;-50
2023/01/22 04:26:59;;;;;;;36.35;16.80;;;;;;;0.10;95.01;102514.56;5111349;28;20043;-50
2023/01/22 04:29:26;;;;;;;37.95;18.33;;;;;;;0.11;95.06;102505.81;5110829;28;20478;-50
2023/01/22 04:31:53;;;;;;;42.97;19.17;;;;;;;0.16;95.42;102506.53;5110981;28;20560;-50
2023/01/22 04:34:40;;;;;;;40.40;19.05;;;;;;;0.10;94.96;102504.13;5110562;28;20135;-50
2023/01/22 04:37:18;;;;;;;37.28;17.52;;;;;;;0.04;94.81;102506.88;5110812;28;20067;-51
2023/01/22 04:39:45;;;;;;;38.17;17.58;;;;;;;0.02;95.76;102499.13;5110711;28;20074;-51
2023/01/22 04:42:11;;;;;;;38.08;17.30;;;;;;;0.03;95.54;102506.03;5110782;28;20543;-51
2023/01/22 04:44:38;;;;;;;36.83;18.38;;;;;;;0.07;96.20;102505.03;5110425;28;20497;-51
2023/01/22 04:47:06;;;;;;;37.67;17.13;;;;;;;0.19;95.98;102506.47;5110944;28;20382;-50
2023/01/22 04:49:35;;;;;;;34.05;17.33;;;;;;;0.10;95.41;102511.94;5110877;28;20048;-50
2023/01/22 04:52:04;;;;;;;39.80;18.77;;;;;;;0.08;95.46;102511.97;5109978;28;20619;-51
2023/01/22 04:54:31;;;;;;;40.13;18.98;;;;;;;-0.01;96.20;102509.63;5110664;28;20074;-51
2023/01/22 04:56:58;;;;;;;40.58;19.40;;;;;;;-0.06;96.28;102509.75;5109012;28;20040;-51
2023/01/22 04:59:24;;;;;;;35.72;17.33;;;;;;;0.06;96.74;102511.19;5110434;28;20090;-50
2023/01/22 05:01:51;;;;;;;36.97;18.02;;;;;;;0.09;96.39;102513.72;5110323;28;20114;-49
2023/01/22 05:04:20;;;;;;;38.42;17.98;;;;;;;0.11;96.16;102505.81;5110641;28;20047;-50
2023/01/22 05:06:47;;;;;;;37.25;18.48;;;;;;;0.03;95.85;102511.25;5109710;28;20382;-51
2023/01/22 05:09:15;;;;;;;37.50;18.73;;;;;;;0.23;95.90;102507.22;5109683;28;20098;-51
2023/01/22 05:11:52;;;;;;;37.08;17.08;;;;;;;0.11;95.73;102503.19;5097111;28;20048;-52
2023/01/22 05:14:19;;;;;;;36.65;18.80;;;;;;;0.08;95.86;102501.53;5089883;28;20431;-51
2023/01/22 05:16:48;;;;;;;37.03;19.10;;;;;;;0.02;96.12;102500.84;5089565;28;20045;-50
2023/01/22 05:19:14;;;;;;;38.55;17.45;;;;;;;-0.02;96.06;102498.34;5089235;28;20049;-51
2023/01/22 05:21:41;;;;;;;42.85;19.08;;;;;;;-0.05;96.67;102503.63;5089543;28;20051;-51
2023/01/22 05:24:08;;;;;;;36.70;19.45;;;;;;;-0.05;96.83;102508.00;5089761;28;20135;-52
2023/01/22 05:26:37;;;;;;;35.25;17.55;;;;;;;0.00;96.99;102508.75;5089660;28;20052;-53
2023/01/22 05:29:10;;;;;;;38.78;19.02;;;;;;;0.20;96.70;102510.81;5084633;28;20044;-53
2023/01/22 05:31:51;;;;;;;37.42;18.65;;;;;;;0.11;96.43;102503.19;5086103;28;20040;-50
2023/01/22 05:34:29;;;;;;;35.00;17.67;;;;;;;0.08;96.74;102501.53;5096496;28;20054;-51
2023/01/22 05:36:56;;;;;;;42.13;19.30;;;;;;;0.02;96.62;102501.72;5095992;28;20040;-56
2023/01/22 05:39:25;;;;;;;40.42;19.38;;;;;;;-0.06;96.79;102498.47;5096200;28;20490;-51
2023/01/22 05:41:53;;;;;;;40.42;20.05;;;;;;;-0.07;96.95;102492.41;5096150;28;20051;-52
2023/01/22 05:44:20;;;;;;;42.50;19.17;;;;;;;-0.05;97.34;102492.38;5096232;28;20105;-52
2023/01/22 05:46:51;;;;;;;41.38;18.98;;;;;;;-0.07;97.28;102502.84;5094617;28;20494;-50
2023/01/22 05:49:26;;;;;;;40.55;19.55;;;;;;;-0.08;97.52;102505.47;5095861;28;20075;-50
2023/01/22 05:51:55;;;;;;;39.75;19.60;;;;;;;-0.11;96.79;102506.44;5096124;28;20048;-50
2023/01/22 05:54:22;;;;;;;42.10;19.75;;;;;;;-0.14;97.09;102514.34;5095727;28;20117;-50
2023/01/22 05:56:49;;;;;;;39.47;18.58;;;;;;;-0.04;97.13;102514.94;5095875;28;20052;-51
2023/01/22 05:59:16;;;;;;;42.15;19.42;;;;;;;0.00;97.44;102508.75;5095593;28;20047;-53
2023/01/22 06:01:49;;;;;;;36.63;18.00;;;;;;;-0.04;97.43;102509.72;5095943;28;20044;-49
2023/01/22 06:04:17;;;;;;;41.92;19.23;;;;;;;-0.05;97.18;102511.47;5095517;28;20127;-50
2023/01/22 06:06:44;;;;;;;41.90;20.35;;;;;;;-0.12;97.51;102520.34;5095165;28;20105;-50
2023/01/22 06:09:12;;;;;;;38.83;19.27;;;;;;;-0.08;96.90;102516.75;5095528;28;20466;-49
2023/01/22 06:11:40;;;;;;;45.35;19.35;;;;;;;-0.09;96.94;102516.81;5095531;28;20052;-51
2023/01/22 06:14:07;;;;;;;44.38;21.02;;;;;;;0.01;96.83;102510.44;5095754;28;20052;-51
2023/01/22 06:16:34;;;;;;;38.45;18.55;;;;;;;-0.06;96.72;102511.50;5094984;28;20459;-51
2023/01/22 06:19:20;;;;;;;36.95;18.08;;;;;;;-0.11;97.00;102511.66;5095202;28;20071;-52
2023/01/22 06:21:51;;;;;;;41.13;19.67;;;;;;;-0.13;97.54;102513.41;5094117;28;20429;-50
2023/01/22 06:24:23;;;;;;;42.03;20.55;;;;;;;-0.10;97.21;102505.50;5095560;28;20489;-51
2023/01/22 06:26:50;;;;;;;40.45;19.35;;;;;;;-0.16;97.49;102510.91;5095260;28;20575;-49
2023/01/22 06:29:18;;;;;;;45.63;20.40;;;;;;;-0.11;98.02;102519.47;5095238;28;20055;-50
2023/01/22 06:31:46;;;;;;;42.60;20.23;;;;;;;-0.08;97.14;102518.53;5094993;28;20048;-51
2023/01/22 06:34:16;;;;;;;39.05;18.50;;;;;;;-0.09;97.61;102516.81;5094866;28;20493;-51
2023/01/22 06:36:44;;;;;;;43.95;20.00;;;;;;;-0.10;97.39;102517.72;5094867;28;20044;-49
2023/01/22 06:39:11;;;;;;;43.60;20.17;;;;;;;0.00;97.44;102524.41;5095028;28;20447;-49
2023/01/22 06:41:42;;;;;;;47.47;20.67;;;;;;;-0.11;97.35;102523.81;5094074;28;20048;-51
2023/01/22 06:44:13;;;;;;;43.45;19.80;;;;;;;-0.09;97.70;102528.13;5093851;28;20044;-51
2023/01/22 06:46:41;;;;;;;41.75;18.50;;;;;;;-0.05;97.25;102528.88;5094647;28;20044;-52
2023/01/22 06:49:09;;;;;;;40.85;19.63;;;;;;;-0.10;97.13;102530.75;5094950;28;20178;-50
2023/01/22 06:51:38;;;;;;;45.80;19.50;;;;;;;-0.03;97.00;102529.69;5094711;28;20097;-51
2023/01/22 06:54:05;;;;;;;41.03;18.55;;;;;;;-0.02;96.93;102528.78;5095013;28;20481;-49
2023/01/22 06:56:32;;;;;;;43.60;20.00;;;;;;;-0.02;96.79;102536.59;5094257;28;20140;-51
2023/01/22 06:59:01;;;;;;;37.45;18.42;;;;;;;0.01;97.39;102528.72;5094810;28;20048;-50
2023/01/22 07:01:28;;;;;;;38.78;19.75;;;;;;;-0.01;97.14;102533.97;5094380;28;20044;-50
2023/01/22 07:03:55;;;;;;;39.85;18.80;;;;;;;0.00;96.95;102529.63;5094594;28;20048;-50
2023/01/22 07:06:23;;;;;;;44.50;19.70;;;;;;;0.07;97.46;102523.31;5088653;28;20051;-50
2023/01/22 07:08:49;;;;;;;38.53;19.55;;;;;;;0.02;96.88;102520.00;5077392;28;20557;-49
2023/01/22 07:11:17;;;;;;;39.80;18.60;;;;;;;0.10;97.00;102519.78;5061949;28;20055;-49
2023/01/22 07:13:44;;;;;;;41.20;19.02;;;;;;;-0.02;96.32;102527.06;5095391;27;20101;-50
2023/01/22 07:16:11;;;;;;;38.10;18.25;;;;;;;0.06;97.46;102529.44;5093238;28;20101;-49
2023/01/22 07:18:38;;;;;;;40.03;19.67;;;;;;;0.22;96.82;102532.50;5092508;28;20401;-49
2023/01/22 07:21:05;;;;;;;41.33;19.13;;;;;;;0.23;96.96;102541.16;5094339;28;20048;-50
2023/01/22 07:23:32;;;;;;;39.10;19.42;;;;;;;0.13;97.14;102537.97;5093821;28;20451;-48
2023/01/22 07:25:58;;;;;;;41.75;19.30;;;;;;;0.05;97.02;102535.53;5093817;28;20035;-49
2023/01/22 07:28:25;;;;;;;39.15;18.00;;;;;;;0.10;96.58;102545.88;5093792;28;20094;-49
2023/01/22 07:30:52;;;;;;;44.40;19.20;;;;;;;0.11;96.46;102545.84;5093440;28;20052;-48
2023/01/22 07:33:18;;;;;;;37.97;18.55;;;;;;;0.14;96.24;102548.34;5093816;28;20119;-49
2023/01/22 07:35:53;;;;;;;45.15;19.60;;;;;;;0.18;96.02;102554.34;5093274;28;20105;-48
2023/01/22 07:38:20;;;;;;;39.97;18.40;;;;;;;0.24;95.82;102561.13;5093633;28;20119;-49
2023/01/22 07:40:47;;;;;;;41.38;19.92;;;;;;;0.28;95.37;102560.19;5093803;28;20072;-48
2023/01/22 07:43:15;;;;;;;41.55;19.23;;;;;;;0.36;95.25;102563.41;5093718;28;20047;-49
2023/01/22 07:45:41;;;;;;;36.90;17.45;;;;;;;0.19;95.09;102572.56;5093070;28;20455;-48
2023/01/22 07:48:09;;;;;;;41.17;19.40;;;;;;;0.21;95.83;102576.91;5093424;28;20044;-48
2023/01/22 07:50:38;;;;;;;39.65;19.23;;;;;;;0.13;96.26;102582.34;5093615;28;20043;-49
2023/01/22 07:53:07;;;;;;;38.55;18.38;;;;;;;0.17;96.42;102570.91;5093210;28;20489;-48
2023/01/22 07:55:33;;;;;;;39.95;18.13;;;;;;;0.17;96.65;102576.97;5093646;28;20078;-49
2023/01/22 07:58:02;;;;;;;40.78;19.60;;;;;;;0.19;96.28;102577.78;5093757;28;20071;-49
2023/01/22 08:00:30;;;;;;;34.90;18.17;;;;;;;0.21;96.88;102582.13;5093069;28;20044;-48
2023/01/22 08:02:57;;;;;;;43.47;19.83;;;;;;;0.28;96.16;102579.28;5093768;28;20169;-48
2023/01/22 08:05:24;;;;;;;34.33;17.00;;;;;;;0.25;96.21;102578.53;5093355;28;20517;-49
2023/01/22 08:07:52;;;;;;;36.75;16.90;;;;;;;0.26;96.20;102582.84;5092752;28;20054;-48
2023/01/22 08:10:18;;;;;;;40.80;18.60;;;;;;;0.22;95.86;102582.09;5093094;28;20105;-52
2023/01/22 08:12:46;;;;;;;39.47;17.98;;;;;;;0.23;96.21;102581.16;5093295;28;20624;-48
2023/01/22 08:15:13;;;;;;;38.25;17.88;;;;;;;0.16;96.98;102590.06;5093174;28;20080;-51
2023/01/22 08:17:41;;;;;;;39.75;19.35;;;;;;;0.18;97.09;102585.66;5092942;28;20056;-53
2023/01/22 08:20:08;;;;;;;39.03;17.65;;;;;;;0.10;97.32;102593.69;5093581;28;20111;-50
2023/01/22 08:22:35;;;;;;;41.05;18.58;;;;;;;0.13;97.56;102592.78;5093097;28;20051;-49
2023/01/22 08:25:03;;;;;;;43.97;18.92;;;;;;;0.20;97.64;102589.09;5092242;28;20056;-49
2023/01/22 08:27:29;;;;;;;38.15;16.52;;;;;;;0.17;97.42;102594.41;5093063;28;20044;-49
2023/01/22 08:29:56;;;;;;;38.78;18.20;;;;;;;0.15;97.89;102589.22;5092846;28;20379;-50
2023/01/22 08:32:23;;;;;;;42.00;18.75;;;;;;;0.14;97.70;102589.25;5092935;28;20131;-51
2023/01/22 08:34:53;;;;;;;40.45;19.35;;;;;;;0.18;97.32;102602.19;5093337;28;20036;-52
2023/01/22 08:37:21;;;;;;;42.45;19.52;;;;;;;0.27;97.82;102590.63;5093060;28;20044;-51
2023/01/22 08:39:48;;;;;;;39.63;19.10;;;;;;;0.29;97.61;102606.25;5093195;28;20044;-53
2023/01/22 08:42:15;;;;;;;43.35;19.38;;;;;;;0.28;97.40;102596.72;5093114;28;20056;-52
2023/01/22 08:44:41;;;;;;;37.78;18.13;;;;;;;0.43;97.08;102598.91;5092971;28;20052;-52
2023/01/22 08:47:10;;;;;;;39.17;18.67;;;;;;;0.42;96.41;102596.31;5092966;28;20052;-52
2023/01/22 08:49:36;;;;;;;41.53;18.75;;;;;;;0.42;96.98;102605.03;5093068;28;20054;-52
2023/01/22 08:52:03;;;;;;;40.63;19.23;;;;;;;0.40;97.33;102604.22;5093103;28;20169;-51
2023/01/22 08:54:31;;;;;;;46.90;19.92;;;;;;;0.54;97.29;102599.44;5093063;28;20047;-51
2023/01/22 08:56:58;;;;;;;41.58;19.45;;;;;;;0.48;96.69;102593.56;5092279;28;20429;-52
2023/01/22 08:59:25;;;;;;;44.55;20.45;;;;;;;0.49;97.19;102600.47;5092783;28;20037;-52
2023/01/22 09:01:51;;;;;;;41.60;19.52;;;;;;;0.44;96.64;102598.00;5092664;28;20048;-50
2023/01/22 09:04:18;;;;;;;39.45;18.40;;;;;;;0.49;97.10;102597.84;5093706;28;20173;-51
2023/01/22 09:06:45;;;;;;;43.78;19.83;;;;;;;0.53;96.63;102604.72;5096471;28;20044;-51
2023/01/22 09:09:12;;;;;;;44.22;19.73;;;;;;;0.52;97.10;102609.06;5096286;28;20509;-51
2023/01/22 09:11:39;;;;;;;45.65;19.77;;;;;;;0.51;96.65;102603.88;5096969;28;20048;-52
2023/01/22 09:14:08;;;;;;;40.40;20.00;;;;;;;0.46;96.50;102598.81;5090921;28;20055;-52
2023/01/22 09:16:36;;;;;;;46.47;20.90;;;;;;;0.48;97.10;102597.00;5096090;28;20516;-50
2023/01/22 09:19:04;;;;;;;42.78;20.33;;;;;;;0.49;96.80;102592.63;5094835;28;20044;-50
2023/01/22 09:21:32;;;;;;;42.88;19.98;;;;;;;0.40;97.30;102596.38;5096766;28;20044;-51
2023/01/22 09:23:59;;;;;;;44.55;19.77;;;;;;;0.48;97.50;102601.38;5095898;28;20470;-50
2023/01/22 09:26:26;;;;;;;39.60;18.90;;;;;;;0.50;96.97;102597.81;5096524;28;20375;-51
2023/01/22 09:28:53;;;;;;;46.55;20.23;;;;;;;0.57;96.42;102596.75;5096208;28;20055;-52
2023/01/22 09:31:19;;;;;;;43.95;20.25;;;;;;;0.66;96.36;102593.03;5095931;28;20070;-52
2023/01/22 09:33:46;;;;;;;44.28;19.73;;;;;;;0.79;95.31;102597.91;5096307;28;20040;-51
2023/01/22 09:36:15;;;;;;;41.20;18.42;;;;;;;0.56;95.99;102597.66;5095766;28;20139;-51
2023/01/22 09:38:42;;;;;;;43.67;19.40;;;;;;;0.58;96.04;102613.28;5095776;28;20036;-50
2023/01/22 09:41:20;;;;;;;51.35;21.38;;;;;;;0.56;97.31;102607.25;5095904;28;20117;-50
2023/01/22 09:43:54;;;;;;;43.88;20.88;;;;;;;0.63;96.56;102611.38;5096355;28;20046;-51
2023/01/22 09:46:42;;;;;;;41.92;19.92;;;;;;;0.58;96.28;102615.88;5095895;28;20052;-52
2023/01/22 09:49:23;;;;;;;46.35;20.92;;;;;;;0.59;97.18;102617.59;5096109;28;20060;-52
2023/01/22 09:51:55;;;;;;;47.45;19.58;;;;;;;0.64;97.37;102613.13;5095826;28;20052;-51
2023/01/22 09:54:23;;;;;;;41.85;20.15;;;;;;;0.66;96.34;102611.31;5095696;28;20156;-52
2023/01/22 09:56:52;;;;;;;48.35;22.05;;;;;;;0.83;96.32;102615.19;5094997;28;20074;-51
2023/01/22 09:59:24;;;;;;;45.80;21.65;;;;;;;0.87;96.02;102616.81;5095243;28;20398;-53
2023/01/22 10:01:55;;;;;;;46.88;21.95;;;;;;;0.90;96.54;102614.09;5095175;28;20379;-53
2023/01/22 10:04:42;;;;;;;49.70;22.35;;;;;;;0.90;95.23;102619.34;5095585;28;20052;-52
2023/01/22 10:07:16;;;;;;;43.22;21.17;;;;;;;0.94;94.65;102618.34;5095019;28;20126;-52
2023/01/22 10:09:52;;;;;;;41.78;20.30;;;;;;;0.76;96.33;102614.50;5094854;28;20060;-52
2023/01/22 10:12:19;;;;;;;48.28;21.67;;;;;;;0.74;95.89;102609.31;5095330;28;20131;-53
2023/01/22 10:14:46;;;;;;;44.50;21.02;;;;;;;0.67;96.18;102615.63;5095097;28;20479;-51
2023/01/22 10:17:21;;;;;;;44.05;20.67;;;;;;;0.72;96.14;102612.88;5094592;28;20052;-50
2023/01/22 10:19:57;;;;;;;41.33;20.35;;;;;;;0.76;96.79;102610.16;5095429;28;20121;-52
2023/01/22 10:22:25;;;;;;;46.10;21.48;;;;;;;0.73;96.47;102602.41;5095085;28;20051;-52
2023/01/22 10:24:53;;;;;;;49.65;22.25;;;;;;;0.67;96.90;102604.31;5095326;28;20047;-49
2023/01/22 10:27:24;;;;;;;44.45;20.48;;;;;;;0.68;96.59;102612.13;5094928;28;20048;-51
2023/01/22 10:32:37;;;;;;;46.03;21.55;;;;;;;0.64;97.73;102610.50;5070013;28;20044;-54
2023/01/22 10:37:47;;;;;;;49.20;23.00;;;;;;;0.72;96.26;102616.34;5110699;27;20700;-49
2023/01/22 10:40:30;;;;;;;50.20;22.48;;;;;;;0.90;97.04;102611.50;5110693;28;20040;-53
2023/01/22 10:43:02;;;;;;;44.22;21.45;;;;;;;0.94;96.84;102613.09;5110654;28;20039;-51
2023/01/22 10:45:30;;;;;;;49.08;21.63;;;;;;;1.02;95.56;102610.25;5110232;28;20040;-52
2023/01/22 10:48:16;;;;;;;48.60;21.88;;;;;;;1.04;95.67;102611.94;5111061;28;20040;-52
2023/01/22 10:50:44;;;;;;;47.05;22.13;;;;;;;1.04;94.66;102603.25;5110532;28;20075;-53
2023/01/22 10:53:25;;;;;;;42.17;21.35;;;;;;;0.93;94.51;102603.56;5110975;28;20082;-51
2023/01/22 10:55:55;;;;;;;40.67;19.48;;;;;;;0.87;95.30;102604.59;5110169;28;20035;-53
2023/01/22 10:58:26;;;;;;;46.83;21.17;;;;;;;0.84;95.29;102612.53;5110898;28;20147;-49
2023/01/22 11:00:58;;;;;;;49.13;21.77;;;;;;;0.82;95.52;102610.84;5110486;28;20051;-50
2023/01/22 11:03:30;;;;;;;;;;;;;;;0.75;96.35;102612.81;5111139;28;20050;-50
2023/01/22 11:06:03;;;;;;;46.55;19.77;;;;;;;0.75;95.49;102607.59;5110384;28;20339;-49
2023/01/22 11:08:39;;;;;;;47.03;21.42;;;;;;;0.72;96.26;102599.81;5092388;28;20135;-52
2023/01/22 11:11:12;;;;;;;46.80;19.58;;;;;;;0.69;96.17;102600.78;5089709;28;20428;-51
2023/01/22 11:14:02;;;;;;;51.83;22.42;;;;;;;0.77;96.42;102595.31;5084611;28;20048;-50
2023/01/22 11:16:33;;;;;;;49.90;22.23;;;;;;;0.85;96.25;102598.56;5087213;28;20389;-51
2023/01/22 11:19:06;;;;;;;52.45;22.50;;;;;;;0.86;96.00;102592.44;5088328;28;20093;-50
2023/01/22 11:21:36;;;;;;;49.90;23.42;;;;;;;0.98;96.10;102587.72;5090017;28;20136;-51
2023/01/22 11:24:35;;;;;;;52.92;23.25;;;;;;;1.09;96.35;102589.13;5088117;28;20129;-49
2023/01/22 11:30:07;;;;;;;46.47;22.38;;;;;;;1.11;95.49;102589.06;5095354;27;20418;-51
2023/01/22 11:35:56;;;;;;;48.47;23.35;;;;;;;1.11;94.77;102592.56;5106056;27;20125;-52
2023/01/22 11:41:26;;;;;;;50.30;22.42;;;;;;;1.05;94.70;102590.09;5070178;28;20167;-51
2023/01/22 11:44:20;;;;;;;48.05;23.58;;;;;;;1.05;95.26;102594.50;5061329;28;20048;-51
2023/01/22 11:52:41;;;;;;;52.25;24.65;;;;;;;1.21;93.92;102593.09;5109261;27;20373;-51
2023/01/22 11:55:47;;;;;;;51.78;23.85;;;;;;;1.27;94.57;102597.28;5106916;28;20040;-52
2023/01/22 11:58:46;;;;;;;50.97;22.50;;;;;;;1.26;94.29;102593.81;5107845;28;20486;-51
2023/01/22 12:01:53;;;;;;;46.80;22.33;;;;;;;1.30;94.78;102594.59;5105377;28;20044;-52